sensor_id;sensor_type;location;lat;lon;timestamp;pressure;altitude;pressure_sealevel;temperature;humidity
10992;BME280;5549;47.028;15.514;2024-01-11T00:00:01;97648.38;;;-0.60;56.19
10992;BME280;5549;47.028;15.514;2024-01-11T00:02:30;97648.22;;;-0.54;55.94
10992;BME280;5549;47.028;15.514;2024-01-11T00:05:00;97649.81;;;-0.49;55.68
10992;BME280;5549;47.028;15.514;2024-01-11T00:07:28;97650.81;;;-0.54;55.82
10992;BME280;5549;47.028;15.514;2024-01-11T00:09:57;97644.88;;;-0.58;56.17
10992;BME280;5549;47.028;15.514;2024-01-11T00:12:25;97652.63;;;-0.58;55.99
10992;BME280;5549;47.028;15.514;2024-01-11T00:14:53;97655.25;;;-0.61;56.16
10992;BME280;5549;47.028;15.514;2024-01-11T00:17:23;97645.91;;;-0.65;56.25
10992;BME280;5549;47.028;15.514;2024-01-11T00:19:51;97644.13;;;-0.63;56.23
10992;BME280;5549;47.028;15.514;2024-01-11T00:22:19;97644.91;;;-0.59;55.74
10992;BME280;5549;47.028;15.514;2024-01-11T00:24:47;97644.91;;;-0.59;55.73
10992;BME280;5549;47.028;15.514;2024-01-11T00:27:14;97647.41;;;-0.56;55.31
10992;BME280;5549;47.028;15.514;2024-01-11T00:29:44;97643.09;;;-0.56;55.21
10992;BME280;5549;47.028;15.514;2024-01-11T00:32:12;97637.06;;;-0.55;55.16
10992;BME280;5549;47.028;15.514;2024-01-11T00:34:43;97635.28;;;-0.53;55.13
10992;BME280;5549;47.028;15.514;2024-01-11T00:37:11;97636.91;;;-0.49;55.24
10992;BME280;5549;47.028;15.514;2024-01-11T00:39:41;97628.31;;;-0.48;55.31
10992;BME280;5549;47.028;15.514;2024-01-11T00:42:10;97629.13;;;-0.46;55.44
10992;BME280;5549;47.028;15.514;2024-01-11T00:44:37;97629.19;;;-0.49;55.24
10992;BME280;5549;47.028;15.514;2024-01-11T00:47:08;97631.75;;;-0.49;55.32
10992;BME280;5549;47.028;15.514;2024-01-11T00:49:39;97628.31;;;-0.48;55.26
10992;BME280;5549;47.028;15.514;2024-01-11T00:52:08;97623.13;;;-0.48;55.08
10992;BME280;5549;47.028;15.514;2024-01-11T00:54:39;97623.13;;;-0.48;55.21
10992;BME280;5549;47.028;15.514;2024-01-11T00:57:10;97630.03;;;-0.48;55.10
10992;BME280;5549;47.028;15.514;2024-01-11T00:59:39;97633.47;;;-0.48;54.88
10992;BME280;5549;47.028;15.514;2024-01-11T01:02:07;97640.38;;;-0.50;54.89
10992;BME280;5549;47.028;15.514;2024-01-11T01:04:38;97637.91;;;-0.54;55.29
10992;BME280;5549;47.028;15.514;2024-01-11T01:07:07;97637.97;;;-0.57;55.39
10992;BME280;5549;47.028;15.514;2024-01-11T01:09:35;97627.91;;;-0.68;55.91
10992;BME280;5549;47.028;15.514;2024-01-11T01:12:04;97635.84;;;-0.77;56.19
10992;BME280;5549;47.028;15.514;2024-01-11T01:14:31;97643.75;;;-0.85;56.32
10992;BME280;5549;47.028;15.514;2024-01-11T01:17:00;97638.63;;;-0.86;56.58
10992;BME280;5549;47.028;15.514;2024-01-11T01:19:27;97629.41;;;-0.97;56.96
10992;BME280;5549;47.028;15.514;2024-01-11T01:21:55;97643.16;;;-0.98;57.09
10992;BME280;5549;47.028;15.514;2024-01-11T01:24:24;97638.00;;;-0.98;57.05
10992;BME280;5549;47.028;15.514;2024-01-11T01:26:52;97632.84;;;-0.98;56.98
10992;BME280;5549;47.028;15.514;2024-01-11T01:29:19;97639.78;;;-1.00;57.06
10992;BME280;5549;47.028;15.514;2024-01-11T01:31:47;97643.38;;;-1.07;57.33
10992;BME280;5549;47.028;15.514;2024-01-11T01:34:15;97637.47;;;-1.13;57.47
10992;BME280;5549;47.028;15.514;2024-01-11T01:36:43;97636.16;;;-1.33;58.51
10992;BME280;5549;47.028;15.514;2024-01-11T01:39:10;97637.31;;;-1.47;59.01
10992;BME280;5549;47.028;15.514;2024-01-11T01:41:41;97630.38;;;-1.44;58.89
10992;BME280;5549;47.028;15.514;2024-01-11T01:44:09;97629.44;;;-1.40;59.04
10992;BME280;5549;47.028;15.514;2024-01-11T01:46:37;97626.69;;;-1.32;58.72
10992;BME280;5549;47.028;15.514;2024-01-11T01:49:05;97628.41;;;-1.31;58.83
10992;BME280;5549;47.028;15.514;2024-01-11T01:51:33;97630.97;;;-1.31;58.90
10992;BME280;5549;47.028;15.514;2024-01-11T01:54:03;97628.31;;;-1.26;59.25
10992;BME280;5549;47.028;15.514;2024-01-11T01:56:32;97626.56;;;-1.24;58.79
10992;BME280;5549;47.028;15.514;2024-01-11T01:59:01;97622.31;;;-1.27;59.03
10992;BME280;5549;47.028;15.514;2024-01-11T02:01:30;97632.66;;;-1.28;58.42
10992;BME280;5549;47.028;15.514;2024-01-11T02:03:59;97620.59;;;-1.28;59.00
10992;BME280;5549;47.028;15.514;2024-01-11T02:06:27;97617.97;;;-1.25;58.96
10992;BME280;5549;47.028;15.514;2024-01-11T02:08:59;97619.66;;;-1.24;58.84
10992;BME280;5549;47.028;15.514;2024-01-11T02:11:28;97615.34;;;-1.23;58.62
10992;BME280;5549;47.028;15.514;2024-01-11T02:13:56;97611.00;;;-1.20;58.35
10992;BME280;5549;47.028;15.514;2024-01-11T02:16:26;97608.47;;;-1.23;59.08
10992;BME280;5549;47.028;15.514;2024-01-11T02:18:53;97603.47;;;-1.31;59.24
10992;BME280;5549;47.028;15.514;2024-01-11T02:21:23;97605.31;;;-1.36;58.81
10992;BME280;5549;47.028;15.514;2024-01-11T02:24:03;97607.91;;;-1.37;58.53
10992;BME280;5549;47.028;15.514;2024-01-11T02:26:59;97613.03;;;-1.36;58.34
10992;BME280;5549;47.028;15.514;2024-01-11T02:29:27;97611.31;;;-1.35;58.04
10992;BME280;5549;47.028;15.514;2024-01-11T02:31:56;97601.84;;;-1.35;57.93
10992;BME280;5549;47.028;15.514;2024-01-11T02:34:25;97607.00;;;-1.35;58.04
10992;BME280;5549;47.028;15.514;2024-01-11T02:36:54;97606.16;;;-1.35;58.04
10992;BME280;5549;47.028;15.514;2024-01-11T02:39:24;97601.84;;;-1.35;57.82
10992;BME280;5549;47.028;15.514;2024-01-11T02:41:55;97600.16;;;-1.36;57.80
10992;BME280;5549;47.028;15.514;2024-01-11T02:44:23;97595.84;;;-1.35;57.64
10992;BME280;5549;47.028;15.514;2024-01-11T02:46:50;97601.84;;;-1.35;57.64
10992;BME280;5549;47.028;15.514;2024-01-11T02:49:18;97600.94;;;-1.32;57.91
10992;BME280;5549;47.028;15.514;2024-01-11T02:51:48;97595.81;;;-1.34;58.47
10992;BME280;5549;47.028;15.514;2024-01-11T02:54:16;97601.88;;;-1.36;58.73
10992;BME280;5549;47.028;15.514;2024-01-11T02:56:45;97595.19;;;-1.45;58.92
10992;BME280;5549;47.028;15.514;2024-01-11T02:59:13;97595.28;;;-1.49;58.85
10992;BME280;5549;47.028;15.514;2024-01-11T03:01:41;97597.13;;;-1.56;58.98
10992;BME280;5549;47.028;15.514;2024-01-11T03:04:09;97588.66;;;-1.63;59.41
10992;BME280;5549;47.028;15.514;2024-01-11T03:06:51;97594.97;;;-1.79;59.62
10992;BME280;5549;47.028;15.514;2024-01-11T03:09:19;97592.50;;;-1.85;59.85
10992;BME280;5549;47.028;15.514;2024-01-11T03:11:49;97593.28;;;-1.81;59.36
10992;BME280;5549;47.028;15.514;2024-01-11T03:18:22;97581.03;;;-1.67;58.72
10992;BME280;5549;47.028;15.514;2024-01-11T03:20:50;97582.91;;;-1.77;59.67
10992;BME280;5549;47.028;15.514;2024-01-11T03:23:17;97576.84;;;-1.74;59.35
10992;BME280;5549;47.028;15.514;2024-01-11T03:25:49;97580.28;;;-1.74;59.21
10992;BME280;5549;47.028;15.514;2024-01-11T03:28:20;97579.97;;;-2.03;60.57
10992;BME280;5549;47.028;15.514;2024-01-11T03:30:47;97575.66;;;-2.03;60.53
10992;BME280;5549;47.028;15.514;2024-01-11T03:33:15;97571.28;;;-1.98;60.28
10992;BME280;5549;47.028;15.514;2024-01-11T03:35:43;97566.19;;;-2.01;61.23
10992;BME280;5549;47.028;15.514;2024-01-11T03:38:10;97563.56;;;-1.98;60.63
10992;BME280;5549;47.028;15.514;2024-01-11T03:40:40;97561.81;;;-1.96;60.76
10992;BME280;5549;47.028;15.514;2024-01-11T03:43:08;97558.47;;;-2.01;61.43
10992;BME280;5549;47.028;15.514;2024-01-11T03:45:37;97561.00;;;-1.98;61.08
10992;BME280;5549;47.028;15.514;2024-01-11T03:48:05;97554.03;;;-1.92;60.55
10992;BME280;5549;47.028;15.514;2024-01-11T03:50:32;97550.56;;;-1.91;60.22
10992;BME280;5549;47.028;15.514;2024-01-11T03:53:00;97547.03;;;-1.86;60.31
10992;BME280;5549;47.028;15.514;2024-01-11T03:55:28;97545.22;;;-1.81;60.28
10992;BME280;5549;47.028;15.514;2024-01-11T03:57:55;97548.56;;;-1.76;59.52
10992;BME280;5549;47.028;15.514;2024-01-11T04:00:23;97542.56;;;-1.76;59.91
10992;BME280;5549;47.028;15.514;2024-01-11T04:02:51;97547.69;;;-1.73;60.19
10992;BME280;5549;47.028;15.514;2024-01-11T04:05:21;97544.19;;;-1.71;59.70
10992;BME280;5549;47.028;15.514;2024-01-11T04:07:49;97550.16;;;-1.69;59.84
10992;BME280;5549;47.028;15.514;2024-01-11T04:10:18;97550.16;;;-1.69;60.16
10992;BME280;5549;47.028;15.514;2024-01-11T04:12:45;97544.06;;;-1.65;60.07
10992;BME280;5549;47.028;15.514;2024-01-11T04:15:13;97539.81;;;-1.66;60.69
10992;BME280;5549;47.028;15.514;2024-01-11T04:17:41;97534.72;;;-1.69;60.44
10992;BME280;5549;47.028;15.514;2024-01-11T04:20:10;97521.78;;;-1.66;60.86
10992;BME280;5549;47.028;15.514;2024-01-11T04:22:38;97526.09;;;-1.68;60.96
10992;BME280;5549;47.028;15.514;2024-01-11T04:25:07;97524.47;;;-1.72;61.04
10992;BME280;5549;47.028;15.514;2024-01-11T04:27:37;97529.66;;;-1.73;60.47
10992;BME280;5549;47.028;15.514;2024-01-11T04:30:06;97522.81;;;-1.76;60.66
10992;BME280;5549;47.028;15.514;2024-01-11T04:32:35;97521.06;;;-1.75;60.07
10992;BME280;5549;47.028;15.514;2024-01-11T04:35:03;97522.78;;;-1.73;60.19
10992;BME280;5549;47.028;15.514;2024-01-11T04:37:32;97513.28;;;-1.71;60.06
10992;BME280;5549;47.028;15.514;2024-01-11T04:40:01;97516.75;;;-1.72;60.43
10992;BME280;5549;47.028;15.514;2024-01-11T04:42:31;97507.31;;;-1.74;60.32
10992;BME280;5549;47.028;15.514;2024-01-11T04:44:59;97509.94;;;-1.76;60.16
10992;BME280;5549;47.028;15.514;2024-01-11T04:47:27;97514.25;;;-1.78;60.06
10992;BME280;5549;47.028;15.514;2024-01-11T04:49:54;97503.94;;;-1.76;60.01
10992;BME280;5549;47.028;15.514;2024-01-11T04:52:22;97513.41;;;-1.78;60.05
10992;BME280;5549;47.028;15.514;2024-01-11T04:54:53;97514.31;;;-1.81;59.91
10992;BME280;5549;47.028;15.514;2024-01-11T04:57:20;97511.78;;;-1.82;59.72
10992;BME280;5549;47.028;15.514;2024-01-11T04:59:48;97519.53;;;-1.84;59.45
10992;BME280;5549;47.028;15.514;2024-01-11T05:02:15;97507.59;;;-1.88;59.80
10992;BME280;5549;47.028;15.514;2024-01-11T05:04:43;97514.63;;;-1.96;59.95
10992;BME280;5549;47.028;15.514;2024-01-11T05:07:10;97504.28;;;-1.93;59.32
10992;BME280;5549;47.028;15.514;2024-01-11T05:09:41;97499.97;;;-1.92;59.99
10992;BME280;5549;47.028;15.514;2024-01-11T05:12:10;97497.44;;;-1.94;59.85
10992;BME280;5549;47.028;15.514;2024-01-11T05:14:38;97503.47;;;-1.97;59.75
10992;BME280;5549;47.028;15.514;2024-01-11T05:17:05;97502.88;;;-2.09;59.90
10992;BME280;5549;47.028;15.514;2024-01-11T05:19:34;97505.44;;;-2.09;59.97
10992;BME280;5549;47.028;15.514;2024-01-11T05:22:02;97496.00;;;-2.09;59.80
10992;BME280;5549;47.028;15.514;2024-01-11T05:24:30;97497.66;;;-2.06;59.67
10992;BME280;5549;47.028;15.514;2024-01-11T05:26:58;97501.06;;;-2.04;59.63
10992;BME280;5549;47.028;15.514;2024-01-11T05:29:27;97494.19;;;-2.04;59.64
10992;BME280;5549;47.028;15.514;2024-01-11T05:31:54;97487.31;;;-2.03;59.28
10992;BME280;5549;47.028;15.514;2024-01-11T05:34:22;97491.63;;;-2.04;59.17
10992;BME280;5549;47.028;15.514;2024-01-11T05:36:52;97487.47;;;-2.11;60.21
10992;BME280;5549;47.028;15.514;2024-01-11T05:39:19;97490.97;;;-2.15;59.69
10992;BME280;5549;47.028;15.514;2024-01-11T05:41:47;97485.81;;;-2.15;59.88
10992;BME280;5549;47.028;15.514;2024-01-11T05:44:14;97491.84;;;-2.16;59.57
10992;BME280;5549;47.028;15.514;2024-01-11T05:46:43;97487.56;;;-2.15;59.39
10992;BME280;5549;47.028;15.514;2024-01-11T05:49:11;97491.84;;;-2.16;59.27
10992;BME280;5549;47.028;15.514;2024-01-11T05:51:38;97489.28;;;-2.16;58.99
10992;BME280;5549;47.028;15.514;2024-01-11T05:54:06;97486.75;;;-2.19;59.44
10992;BME280;5549;47.028;15.514;2024-01-11T05:56:36;97493.66;;;-2.21;59.27
10992;BME280;5549;47.028;15.514;2024-01-11T05:59:04;97496.31;;;-2.26;59.64
10992;BME280;5549;47.028;15.514;2024-01-11T06:01:39;97496.25;;;-2.22;59.30
10992;BME280;5549;47.028;15.514;2024-01-11T06:04:08;97500.53;;;-2.21;59.09
10992;BME280;5549;47.028;15.514;2024-01-11T06:06:36;97505.72;;;-2.24;59.64
10992;BME280;5549;47.028;15.514;2024-01-11T06:09:03;97499.81;;;-2.30;59.83
10992;BME280;5549;47.028;15.514;2024-01-11T06:11:31;97498.06;;;-2.28;59.81
10992;BME280;5549;47.028;15.514;2024-01-11T06:13:59;97503.19;;;-2.26;59.76
10992;BME280;5549;47.028;15.514;2024-01-11T06:16:27;97497.16;;;-2.25;59.45
10992;BME280;5549;47.028;15.514;2024-01-11T06:18:55;97496.31;;;-2.26;59.73
10992;BME280;5549;47.028;15.514;2024-01-11T06:21:26;97498.00;;;-2.24;59.25
10992;BME280;5549;47.028;15.514;2024-01-11T06:23:53;97498.00;;;-2.24;59.67
10992;BME280;5549;47.028;15.514;2024-01-11T06:26:21;97504.84;;;-2.23;59.47
10992;BME280;5549;47.028;15.514;2024-01-11T06:28:49;97498.84;;;-2.22;59.04
10992;BME280;5549;47.028;15.514;2024-01-11T06:31:17;97491.13;;;-2.22;59.85
10992;BME280;5549;47.028;15.514;2024-01-11T06:33:44;97495.31;;;-2.18;59.87
10992;BME280;5549;47.028;15.514;2024-01-11T06:36:12;97485.91;;;-2.19;60.58
10992;BME280;5549;47.028;15.514;2024-01-11T06:38:41;97483.47;;;-2.26;60.30
10992;BME280;5549;47.028;15.514;2024-01-11T06:41:08;97486.03;;;-2.26;60.29
10992;BME280;5549;47.028;15.514;2024-01-11T06:43:36;97486.03;;;-2.26;60.34
10992;BME280;5549;47.028;15.514;2024-01-11T06:46:04;97482.56;;;-2.24;59.76
10992;BME280;5549;47.028;15.514;2024-01-11T06:48:32;97480.78;;;-2.19;60.02
10992;BME280;5549;47.028;15.514;2024-01-11T06:51:00;97482.28;;;-2.09;59.34
10992;BME280;5549;47.028;15.514;2024-01-11T06:53:27;97483.75;;;-1.96;59.70
10992;BME280;5549;47.028;15.514;2024-01-11T06:55:56;97485.19;;;-1.83;59.49
10992;BME280;5549;47.028;15.514;2024-01-11T06:58:26;97472.50;;;-1.12;67.55
10992;BME280;5549;47.028;15.514;2024-01-11T07:00:53;97465.59;;;-0.42;71.68
10992;BME280;5549;47.028;15.514;2024-01-11T07:03:23;97456.47;;;0.10;71.59
10992;BME280;5549;47.028;15.514;2024-01-11T07:05:51;97455.59;;;0.69;71.39
10992;BME280;5549;47.028;15.514;2024-01-11T07:08:19;97458.44;;;0.87;67.55
10992;BME280;5549;47.028;15.514;2024-01-11T07:10:47;97458.16;;;0.69;64.26
10992;BME280;5549;47.028;15.514;2024-01-11T07:13:15;97453.13;;;0.64;63.21
10992;BME280;5549;47.028;15.514;2024-01-11T07:15:45;97456.25;;;0.75;60.89
10992;BME280;5549;47.028;15.514;2024-01-11T07:18:13;97451.06;;;0.75;59.90
10992;BME280;5549;47.028;15.514;2024-01-11T07:20:41;97449.28;;;0.77;58.66
10992;BME280;5549;47.028;15.514;2024-01-11T07:23:09;97448.91;;;0.89;58.17
10992;BME280;5549;47.028;15.514;2024-01-11T07:25:36;97447.00;;;0.94;57.27
10992;BME280;5549;47.028;15.514;2024-01-11T07:28:07;97450.78;;;0.84;56.47
10992;BME280;5549;47.028;15.514;2024-01-11T07:30:36;97452.47;;;0.85;56.69
10992;BME280;5549;47.028;15.514;2024-01-11T07:33:04;97450.44;;;0.95;55.88
10992;BME280;5549;47.028;15.514;2024-01-11T07:35:31;97451.78;;;1.07;55.72
10992;BME280;5549;47.028;15.514;2024-01-11T07:37:59;97455.97;;;1.11;55.52
10992;BME280;5549;47.028;15.514;2024-01-11T07:40:27;97461.78;;;1.17;55.03
10992;BME280;5549;47.028;15.514;2024-01-11T07:42:55;97458.97;;;1.25;55.42
10992;BME280;5549;47.028;15.514;2024-01-11T07:45:22;97466.41;;;1.34;54.98
10992;BME280;5549;47.028;15.514;2024-01-11T07:47:51;97462.97;;;1.34;54.65
10992;BME280;5549;47.028;15.514;2024-01-11T07:50:19;97463.56;;;1.42;54.33
10992;BME280;5549;47.028;15.514;2024-01-11T07:52:46;97457.44;;;1.44;54.11
10992;BME280;5549;47.028;15.514;2024-01-11T07:55:14;97457.31;;;1.49;54.08
10992;BME280;5549;47.028;15.514;2024-01-11T07:57:41;97457.03;;;1.56;53.54
10992;BME280;5549;47.028;15.514;2024-01-11T08:00:10;97448.06;;;1.67;53.99
10992;BME280;5549;47.028;15.514;2024-01-11T08:02:37;97446.09;;;1.75;53.88
10992;BME280;5549;47.028;15.514;2024-01-11T08:05:07;97436.94;;;1.89;53.80
10992;BME280;5549;47.028;15.514;2024-01-11T08:07:35;97442.28;;;2.08;53.47
10992;BME280;5549;47.028;15.514;2024-01-11T08:10:07;97442.84;;;2.16;52.64
10992;BME280;5549;47.028;15.514;2024-01-11T08:12:35;97445.47;;;1.67;54.00
10992;BME280;5549;47.028;15.514;2024-01-11T08:15:03;97451.03;;;1.81;54.22
10992;BME280;5549;47.028;15.514;2024-01-11T08:17:31;97454.34;;;2.09;53.27
10992;BME280;5549;47.028;15.514;2024-01-11T08:19:58;97450.84;;;2.34;53.29
10992;BME280;5549;47.028;15.514;2024-01-11T08:22:27;97434.84;;;2.46;52.52
10992;BME280;5549;47.028;15.514;2024-01-11T08:25:00;97434.38;;;2.58;52.83
10992;BME280;5549;47.028;15.514;2024-01-11T08:27:28;97438.25;;;2.92;52.63
10992;BME280;5549;47.028;15.514;2024-01-11T08:29:56;97430.13;;;3.21;52.16
10992;BME280;5549;47.028;15.514;2024-01-11T08:32:23;97427.38;;;3.46;51.55
10992;BME280;5549;47.028;15.514;2024-01-11T08:34:51;97428.31;;;3.65;51.19
10992;BME280;5549;47.028;15.514;2024-01-11T08:37:18;97408.75;;;3.77;50.83
10992;BME280;5549;47.028;15.514;2024-01-11T08:39:47;97412.28;;;3.95;49.93
10992;BME280;5549;47.028;15.514;2024-01-11T08:42:15;97405.78;;;4.24;49.97
10992;BME280;5549;47.028;15.514;2024-01-11T08:44:42;97413.31;;;4.30;49.04
10992;BME280;5549;47.028;15.514;2024-01-11T08:47:11;97430.94;;;4.23;48.86
10992;BME280;5549;47.028;15.514;2024-01-11T08:49:39;97423.31;;;4.39;49.75
10992;BME280;5549;47.028;15.514;2024-01-11T08:52:07;97424.13;;;4.58;49.30
10992;BME280;5549;47.028;15.514;2024-01-11T08:54:35;97422.91;;;4.84;48.06
10992;BME280;5549;47.028;15.514;2024-01-11T08:57:04;97424.50;;;5.05;48.38
10992;BME280;5549;47.028;15.514;2024-01-11T08:59:32;97430.84;;;5.36;46.18
10992;BME280;5549;47.028;15.514;2024-01-11T09:01:59;97432.59;;;5.35;46.02
10992;BME280;5549;47.028;15.514;2024-01-11T09:04:27;97434.44;;;5.33;46.21
10992;BME280;5549;47.028;15.514;2024-01-11T09:06:56;97434.25;;;5.19;46.87
10992;BME280;5549;47.028;15.514;2024-01-11T09:09:23;97425.09;;;5.29;46.93
10992;BME280;5549;47.028;15.514;2024-01-11T09:11:50;97425.72;;;5.52;46.92
10992;BME280;5549;47.028;15.514;2024-01-11T09:14:19;97410.69;;;5.74;46.12
10992;BME280;5549;47.028;15.514;2024-01-11T09:16:47;97413.13;;;5.77;45.59
10992;BME280;5549;47.028;15.514;2024-01-11T09:19:16;97402.41;;;5.66;45.15
10992;BME280;5549;47.028;15.514;2024-01-11T09:21:43;97403.47;;;5.79;44.36
10992;BME280;5549;47.028;15.514;2024-01-11T09:24:11;97401.16;;;5.90;44.64
10992;BME280;5549;47.028;15.514;2024-01-11T09:26:38;97397.31;;;5.97;44.25
10992;BME280;5549;47.028;15.514;2024-01-11T09:29:06;97402.53;;;5.97;45.11
10992;BME280;5549;47.028;15.514;2024-01-11T09:31:35;97403.84;;;6.22;44.98
10992;BME280;5549;47.028;15.514;2024-01-11T09:34:02;97409.59;;;6.44;44.62
10992;BME280;5549;47.028;15.514;2024-01-11T09:36:30;97409.53;;;6.61;44.94
10992;BME280;5549;47.028;15.514;2024-01-11T09:38:58;97407.53;;;6.98;44.20
10992;BME280;5549;47.028;15.514;2024-01-11T09:41:26;97408.41;;;7.28;43.11
10992;BME280;5549;47.028;15.514;2024-01-11T09:43:54;97401.13;;;7.63;42.37
10992;BME280;5549;47.028;15.514;2024-01-11T09:46:24;97391.53;;;7.78;41.24
10992;BME280;5549;47.028;15.514;2024-01-11T09:48:55;97388.66;;;7.97;41.09
10992;BME280;5549;47.028;15.514;2024-01-11T09:51:24;97377.75;;;8.33;40.40
10992;BME280;5549;47.028;15.514;2024-01-11T09:53:55;97374.00;;;8.37;39.04
10992;BME280;5549;47.028;15.514;2024-01-11T09:56:23;97369.69;;;8.36;38.83
10992;BME280;5549;47.028;15.514;2024-01-11T09:58:51;97361.81;;;8.50;39.14
10992;BME280;5549;47.028;15.514;2024-01-11T10:01:26;97365.53;;;8.60;37.59
10992;BME280;5549;47.028;15.514;2024-01-11T10:03:55;97361.63;;;8.67;38.21
10992;BME280;5549;47.028;15.514;2024-01-11T10:06:24;97359.91;;;8.81;38.41
10992;BME280;5549;47.028;15.514;2024-01-11T10:08:53;97363.41;;;8.67;37.69
10992;BME280;5549;47.028;15.514;2024-01-11T10:11:20;97357.59;;;8.62;38.63
10992;BME280;5549;47.028;15.514;2024-01-11T10:13:48;97358.25;;;8.51;38.39
10992;BME280;5549;47.028;15.514;2024-01-11T10:16:15;97356.94;;;8.58;39.00
10992;BME280;5549;47.028;15.514;2024-01-11T10:18:45;97356.34;;;8.82;37.80
10992;BME280;5549;47.028;15.514;2024-01-11T10:21:14;97354.56;;;9.09;38.42
10992;BME280;5549;47.028;15.514;2024-01-11T10:23:42;97350.91;;;9.24;37.73
10992;BME280;5549;47.028;15.514;2024-01-11T10:26:09;97359.38;;;9.55;36.99
10992;BME280;5549;47.028;15.514;2024-01-11T10:28:37;97347.00;;;9.70;36.75
10992;BME280;5549;47.028;15.514;2024-01-11T10:31:06;97328.75;;;9.81;35.94
10992;BME280;5549;47.028;15.514;2024-01-11T10:33:34;97323.28;;;9.71;35.54
10992;BME280;5549;47.028;15.514;2024-01-11T10:36:05;97308.38;;;9.84;35.52
10992;BME280;5549;47.028;15.514;2024-01-11T10:38:38;97313.19;;;10.03;35.53
10992;BME280;5549;47.028;15.514;2024-01-11T10:41:07;97303.53;;;10.04;35.52
10992;BME280;5549;47.028;15.514;2024-01-11T10:43:37;97306.38;;;10.01;35.46
10992;BME280;5549;47.028;15.514;2024-01-11T10:46:05;97292.81;;;10.07;36.15
10992;BME280;5549;47.028;15.514;2024-01-11T10:48:38;97294.19;;;10.12;34.48
10992;BME280;5549;47.028;15.514;2024-01-11T10:51:08;97296.81;;;10.25;35.36
10992;BME280;5549;47.028;15.514;2024-01-11T10:53:44;97294.03;;;10.39;35.63
10992;BME280;5549;47.028;15.514;2024-01-11T10:56:12;97291.84;;;10.70;35.16
10992;BME280;5549;47.028;15.514;2024-01-11T10:58:41;97285.94;;;10.79;34.65
10992;BME280;5549;47.028;15.514;2024-01-11T11:01:10;97269.47;;;10.88;34.29
10992;BME280;5549;47.028;15.514;2024-01-11T11:03:40;97262.25;;;11.03;33.58
10992;BME280;5549;47.028;15.514;2024-01-11T11:06:09;97260.34;;;11.05;33.81
10992;BME280;5549;47.028;15.514;2024-01-11T11:08:38;97255.22;;;11.14;33.10
10992;BME280;5549;47.028;15.514;2024-01-11T11:11:08;97253.97;;;11.31;32.78
10992;BME280;5549;47.028;15.514;2024-01-11T11:13:36;97239.50;;;11.37;32.59
10992;BME280;5549;47.028;15.514;2024-01-11T11:16:06;97237.28;;;11.08;31.41
10992;BME280;5549;47.028;15.514;2024-01-11T11:18:35;97233.53;;;10.88;32.43
10992;BME280;5549;47.028;15.514;2024-01-11T11:21:09;97230.16;;;10.51;32.58
10992;BME280;5549;47.028;15.514;2024-01-11T11:23:37;97225.75;;;10.03;34.16
10992;BME280;5549;47.028;15.514;2024-01-11T11:26:08;97229.63;;;10.10;34.52
10992;BME280;5549;47.028;15.514;2024-01-11T11:28:41;97227.84;;;9.61;34.69
10992;BME280;5549;47.028;15.514;2024-01-11T11:31:11;97219.41;;;9.81;36.06
10992;BME280;5549;47.028;15.514;2024-01-11T11:33:38;97199.91;;;9.73;35.14
10992;BME280;5549;47.028;15.514;2024-01-11T11:36:12;97192.38;;;9.68;35.36
10992;BME280;5549;47.028;15.514;2024-01-11T11:38:41;97199.53;;;9.53;34.51
10992;BME280;5549;47.028;15.514;2024-01-11T11:41:10;97196.63;;;9.32;35.50
10992;BME280;5549;47.028;15.514;2024-01-11T11:43:40;97206.78;;;9.37;35.76
10992;BME280;5549;47.028;15.514;2024-01-11T11:46:10;97206.78;;;9.50;35.97
10992;BME280;5549;47.028;15.514;2024-01-11T11:48:51;97205.28;;;9.71;35.08
10992;BME280;5549;47.028;15.514;2024-01-11T11:51:18;97203.25;;;9.87;35.76
10992;BME280;5549;47.028;15.514;2024-01-11T11:53:47;97198.31;;;9.83;35.10
10992;BME280;5549;47.028;15.514;2024-01-11T11:56:19;97195.91;;;10.16;35.67
10992;BME280;5549;47.028;15.514;2024-01-11T11:58:48;97195.84;;;10.42;35.08
10992;BME280;5549;47.028;15.514;2024-01-11T12:01:18;97175.19;;;10.72;34.51
10992;BME280;5549;47.028;15.514;2024-01-11T12:03:48;97163.78;;;10.84;33.46
10992;BME280;5549;47.028;15.514;2024-01-11T12:06:18;97170.16;;;11.04;33.90
10992;BME280;5549;47.028;15.514;2024-01-11T12:08:47;97168.28;;;11.40;32.88
10992;BME280;5549;47.028;15.514;2024-01-11T12:11:18;97166.81;;;11.69;32.88
10992;BME280;5549;47.028;15.514;2024-01-11T12:13:47;97176.88;;;11.98;31.69
10992;BME280;5549;47.028;15.514;2024-01-11T12:16:15;97174.34;;;11.74;32.14
10992;BME280;5549;47.028;15.514;2024-01-11T12:18:43;97179.75;;;11.95;32.35
10992;BME280;5549;47.028;15.514;2024-01-11T12:41:14;97141.44;;;12.02;30.81
10992;BME280;5549;47.028;15.514;2024-01-11T12:43:42;97143.63;;;11.85;30.22
10992;BME280;5549;47.028;15.514;2024-01-11T12:46:10;97135.03;;;11.50;30.67
10992;BME280;5549;47.028;15.514;2024-01-11T12:48:37;97131.06;;;11.00;30.83
10992;BME280;5549;47.028;15.514;2024-01-11T12:51:05;97134.38;;;10.79;31.59
10992;BME280;5549;47.028;15.514;2024-01-11T12:53:33;97134.28;;;10.46;31.89
10992;BME280;5549;47.028;15.514;2024-01-11T12:56:04;97149.19;;;10.21;32.69
10992;BME280;5549;47.028;15.514;2024-01-11T12:58:36;97151.25;;;9.69;33.44
10992;BME280;5549;47.028;15.514;2024-01-11T13:01:04;97144.56;;;9.88;33.38
10992;BME280;5549;47.028;15.514;2024-01-11T13:03:33;97150.03;;;10.22;33.64
10992;BME280;5549;47.028;15.514;2024-01-11T13:06:02;97147.34;;;10.58;33.16
10992;BME280;5549;47.028;15.514;2024-01-11T13:08:31;97131.00;;;10.66;32.52
10992;BME280;5549;47.028;15.514;2024-01-11T13:11:01;97120.63;;;10.65;32.42
10992;BME280;5549;47.028;15.514;2024-01-11T13:13:34;97117.13;;;10.53;32.44
10992;BME280;5549;47.028;15.514;2024-01-11T13:16:03;97122.75;;;10.59;33.12
10992;BME280;5549;47.028;15.514;2024-01-11T13:18:32;97126.91;;;10.27;32.63
10992;BME280;5549;47.028;15.514;2024-01-11T13:21:00;97125.72;;;9.83;34.11
10992;BME280;5549;47.028;15.514;2024-01-11T13:23:29;97111.81;;;9.70;34.11
10992;BME280;5549;47.028;15.514;2024-01-11T13:25:59;97118.69;;;9.47;34.21
10992;BME280;5549;47.028;15.514;2024-01-11T13:28:28;97108.78;;;9.14;35.33
10992;BME280;5549;47.028;15.514;2024-01-11T13:30:59;97111.94;;;8.81;35.72
10992;BME280;5549;47.028;15.514;2024-01-11T13:33:28;97118.84;;;8.95;36.12
10992;BME280;5549;47.028;15.514;2024-01-11T13:35:56;97114.25;;;9.11;35.96